Adna, Washington
Current Conditions -  °F | °C
As of 7:15 PM on Thursday 18 Dec 2014 (Local Time) from KCLS Reporting Station
Light Rain Light Rain  
Wind Chill: 50°   Ceiling: 6000
Heat Index: 50°   Visibility: 7mi
Dew Point: 50°   Wind: 14mph
Humidity: 100%   Direction: 170°S
Pressure: 29.74"   Gusts: NA
Location:  46.63°N, 123.06°W
Report Text: KCLS 190315Z AUTO 17012KT 7SM -RA SCT031 SCT044 OVC060 10/10 A2974 RMK AO2
Loading
Personal Weather Stations






























Interactive Weather Map New forecast layout! Learn more

10-Day Weather Forecast

Advertisements
Track Severe Weather on mobile